createdAt,value
2022-12-15T00:00:30.096Z,15.60
2022-12-15T00:05:50.588Z,13.20
2022-12-15T00:11:10.928Z,13.80
2022-12-15T00:16:32.655Z,15.00
2022-12-15T00:21:52.892Z,14.20
2022-12-15T00:27:12.994Z,15.00
2022-12-15T00:32:34.559Z,14.20
2022-12-15T00:37:55.098Z,15.80
2022-12-15T00:42:58.069Z,11.00
2022-12-15T00:48:02.219Z,15.80
2022-12-15T00:53:22.547Z,16.20
2022-12-15T00:58:42.922Z,13.00
2022-12-15T01:04:04.395Z,16.00
2022-12-15T01:09:25.462Z,12.20
2022-12-15T01:14:45.508Z,14.40
2022-12-15T01:20:06.991Z,13.40
2022-12-15T01:25:10.607Z,14.20
2022-12-15T01:30:14.278Z,12.40
2022-12-15T01:35:18.676Z,13.80
2022-12-15T01:40:39.586Z,16.20
2022-12-15T01:46:03.501Z,13.00
2022-12-15T01:51:24.718Z,12.20
2022-12-15T01:56:31.263Z,11.60
2022-12-15T02:01:38.365Z,13.60
2022-12-15T02:06:42.521Z,13.00
2022-12-15T02:11:58.025Z,12.00
2022-12-15T02:17:10.629Z,13.00
2022-12-15T02:22:21.844Z,11.60
2022-12-15T02:27:40.451Z,14.60
2022-12-15T02:32:47.850Z,11.00
2022-12-15T02:37:50.584Z,13.80
2022-12-15T02:42:54.391Z,14.20
2022-12-15T02:48:03.575Z,12.00
2022-12-15T02:53:12.445Z,14.00
2022-12-15T02:58:16.307Z,15.00
2022-12-15T03:03:20.849Z,12.40
2022-12-15T03:08:23.855Z,12.00
2022-12-15T03:13:26.776Z,12.80
2022-12-15T03:18:30.891Z,13.80
2022-12-15T03:23:34.126Z,11.60
2022-12-15T03:28:37.166Z,11.00
2022-12-15T03:33:41.418Z,14.00
2022-12-15T03:38:44.165Z,12.00
2022-12-15T03:43:49.617Z,13.80
2022-12-15T03:48:54.738Z,10.40
2022-12-15T03:53:58.836Z,13.00
2022-12-15T03:59:01.589Z,11.20
2022-12-15T04:04:06.255Z,13.00
2022-12-15T04:09:09.116Z,11.60
2022-12-15T04:14:11.917Z,14.60
2022-12-15T04:19:33.756Z,14.00
2022-12-15T04:24:54.215Z,12.60
2022-12-15T04:30:14.368Z,11.80
2022-12-15T04:35:35.835Z,11.80
2022-12-15T04:40:55.985Z,11.20
2022-12-15T04:46:16.145Z,12.00
2022-12-15T04:51:37.747Z,13.60
2022-12-15T04:56:57.852Z,12.80
2022-12-15T05:02:18.046Z,12.40
2022-12-15T05:07:39.798Z,15.00
2022-12-15T05:13:00.034Z,13.00
2022-12-15T05:18:20.884Z,13.80
2022-12-15T05:23:42.757Z,12.40
2022-12-15T05:29:03.376Z,11.60
2022-12-15T05:34:06.950Z,12.00
2022-12-15T05:39:11.093Z,12.80
2022-12-15T05:44:13.883Z,10.00
2022-12-15T05:49:17.584Z,13.20
2022-12-15T05:54:22.171Z,11.60
2022-12-15T05:59:24.954Z,11.00
2022-12-15T06:04:27.787Z,11.60
2022-12-15T06:09:32.082Z,12.20
2022-12-15T06:14:36.206Z,10.80
2022-12-15T06:19:39.014Z,9.40
2022-12-15T06:24:43.197Z,10.20
2022-12-15T06:29:46.003Z,9.80
2022-12-15T06:34:49.212Z,10.60
2022-12-15T06:39:53.327Z,11.20
2022-12-15T06:44:56.074Z,11.20
2022-12-15T06:49:58.856Z,9.40
2022-12-15T06:55:03.217Z,9.00
2022-12-15T07:00:08.808Z,11.00
2022-12-15T07:05:12.290Z,11.00
2022-12-15T07:10:16.514Z,10.80
2022-12-15T07:15:19.331Z,9.60
2022-12-15T07:20:28.483Z,11.00
2022-12-15T07:25:33.120Z,10.00
2022-12-15T07:30:38.876Z,10.60
2022-12-15T07:35:42.188Z,10.40
2022-12-15T07:40:46.694Z,9.40
2022-12-15T07:45:52.978Z,10.60
2022-12-15T07:51:07.369Z,10.00
2022-12-15T07:56:15.398Z,9.80
2022-12-15T08:01:18.655Z,54.33
2022-12-15T08:06:21.534Z,54.33
2022-12-15T08:11:26.892Z,50.75
2022-12-15T08:16:30.731Z,50.50
2022-12-15T08:21:33.843Z,43.50
2022-12-15T08:26:38.432Z,41.25
2022-12-15T08:31:41.669Z,36.25
2022-12-15T08:36:44.538Z,36.00
2022-12-15T08:41:48.676Z,32.20
2022-12-15T08:46:52.214Z,28.80
2022-12-15T08:51:54.984Z,25.60
2022-12-15T08:56:59.340Z,27.20
2022-12-15T09:02:02.365Z,26.00
2022-12-15T09:07:05.350Z,26.00
2022-12-15T09:12:11.267Z,25.40
2022-12-15T09:17:14.243Z,23.60
2022-12-15T09:22:17.118Z,25.80
2022-12-15T09:27:21.374Z,27.60
2022-12-15T09:32:24.283Z,30.60
2022-12-15T09:37:27.130Z,37.25
2022-12-15T09:42:31.762Z,38.50
2022-12-15T09:47:38.886Z,35.50
2022-12-15T09:52:47.123Z,38.00
2022-12-15T09:57:54.184Z,39.00
2022-12-15T10:03:16.994Z,37.75
2022-12-15T10:08:20.308Z,36.75
2022-12-15T10:13:28.659Z,38.25
2022-12-15T10:18:33.477Z,41.00
2022-12-15T10:23:36.734Z,45.00
2022-12-15T10:28:51.548Z,48.75
2022-12-15T10:33:57.482Z,46.33
2022-12-15T10:39:00.525Z,47.50
2022-12-15T10:44:04.945Z,45.00
2022-12-15T10:49:22.806Z,45.00
2022-12-15T10:54:25.846Z,41.50
2022-12-15T10:59:32.078Z,41.50
2022-12-15T11:04:35.126Z,42.00
2022-12-15T11:09:38.794Z,39.75
2022-12-15T11:14:45.862Z,40.00
2022-12-15T11:19:56.569Z,38.00
2022-12-15T11:25:04.499Z,37.75
2022-12-15T11:30:13.938Z,35.75
2022-12-15T11:35:18.805Z,37.50
2022-12-15T11:40:31.811Z,40.50
2022-12-15T11:45:40.722Z,41.00
2022-12-15T11:50:51.145Z,38.75
2022-12-15T11:55:57.544Z,44.00
2022-12-15T12:01:06.199Z,36.50
2022-12-15T12:06:12.011Z,35.75
2022-12-15T12:11:15.364Z,40.25
2022-12-15T12:16:27.753Z,36.25
2022-12-15T12:21:32.243Z,37.25
2022-12-15T12:26:38.977Z,36.75
2022-12-15T12:31:44.927Z,35.75
2022-12-15T12:36:48.872Z,36.00
2022-12-15T12:41:55.172Z,35.50
2022-12-15T12:47:00.249Z,35.00
2022-12-15T12:52:04.239Z,37.50
2022-12-15T12:57:30.322Z,31.75
2022-12-15T13:02:50.464Z,34.25
2022-12-15T13:07:57.216Z,36.50
2022-12-15T13:13:01.396Z,33.25
2022-12-15T13:18:08.460Z,33.00
2022-12-15T13:23:41.508Z,33.75
2022-12-15T13:28:50.640Z,36.50
2022-12-15T13:33:57.474Z,30.00
2022-12-15T13:39:01.803Z,31.75
2022-12-15T13:44:08.808Z,32.25
2022-12-15T13:49:15.161Z,31.00
2022-12-15T13:54:19.830Z,28.00
2022-12-15T13:59:32.311Z,34.00
2022-12-15T14:04:36.953Z,35.25
2022-12-15T14:09:41.891Z,29.25
2022-12-15T14:14:47.312Z,31.50
2022-12-15T14:19:53.375Z,31.00
2022-12-15T14:25:00.966Z,32.25
2022-12-15T14:30:18.318Z,32.75
2022-12-15T14:35:25.923Z,30.80
2022-12-15T14:40:29.398Z,32.25
2022-12-15T14:45:33.625Z,28.40
2022-12-15T14:50:38.037Z,29.60
2022-12-15T14:55:41.304Z,30.80
2022-12-15T15:00:49.995Z,31.20
2022-12-15T15:05:56.987Z,26.80
2022-12-15T15:11:01.187Z,29.60
2022-12-15T15:16:06.434Z,30.60
2022-12-15T15:21:16.305Z,29.25
2022-12-15T15:26:27.407Z,30.20
2022-12-15T15:31:40.307Z,26.40
2022-12-15T15:36:45.259Z,31.00
2022-12-15T15:41:48.039Z,29.00
2022-12-15T15:46:52.283Z,26.20
2022-12-15T15:51:58.226Z,28.00
2022-12-15T15:57:00.980Z,23.80
2022-12-15T16:02:04.180Z,29.80
2022-12-15T16:07:08.956Z,28.20
2022-12-15T16:12:14.828Z,25.40
2022-12-15T16:17:17.619Z,26.40
2022-12-15T16:22:22.435Z,26.20
2022-12-15T16:27:25.356Z,26.00
2022-12-15T16:32:28.135Z,24.00
2022-12-15T16:37:36.262Z,26.60
2022-12-15T16:42:42.394Z,23.00
2022-12-15T16:47:45.704Z,22.60
2022-12-15T16:52:51.176Z,20.40
2022-12-15T16:57:54.293Z,22.40
2022-12-15T17:02:57.292Z,23.60
2022-12-15T17:08:02.130Z,26.40
2022-12-15T17:13:05.755Z,37.50
2022-12-15T17:18:08.635Z,62.33
2022-12-15T17:23:16.558Z,71.25
2022-12-15T17:28:20.766Z,74.75
2022-12-15T17:33:24.317Z,76.25
2022-12-15T17:38:28.476Z,77.50
2022-12-15T17:43:35.681Z,77.50
2022-12-15T17:48:38.797Z,79.75
2022-12-15T17:53:43.233Z,76.25
2022-12-15T17:58:46.000Z,74.75
2022-12-15T18:03:48.918Z,70.25
2022-12-15T18:08:53.191Z,74.75
2022-12-15T18:13:56.410Z,67.75
2022-12-15T18:19:00.290Z,66.75
2022-12-15T18:24:04.638Z,68.00
2022-12-15T18:29:13.165Z,65.75
2022-12-15T18:34:17.952Z,61.50
2022-12-15T18:39:23.433Z,61.75
2022-12-15T18:44:27.140Z,61.00
2022-12-15T18:49:30.042Z,61.67
2022-12-15T18:54:34.303Z,60.00
2022-12-15T18:59:37.083Z,58.00
2022-12-15T19:04:39.831Z,54.67
2022-12-15T19:09:44.163Z,57.33
2022-12-15T19:14:47.492Z,59.67
2022-12-15T19:20:07.798Z,51.33
2022-12-15T19:25:12.576Z,56.33
2022-12-15T19:30:16.708Z,49.00
2022-12-15T19:35:19.503Z,51.00
2022-12-15T19:40:27.357Z,54.67
2022-12-15T19:45:31.453Z,52.33
2022-12-15T19:50:36.649Z,49.00
2022-12-15T19:55:41.140Z,47.33
2022-12-15T20:00:43.909Z,48.00
2022-12-15T20:05:46.801Z,48.33
2022-12-15T20:10:51.344Z,47.00
2022-12-15T20:15:54.291Z,48.00
2022-12-15T20:20:57.175Z,49.67
2022-12-15T20:26:01.569Z,45.33
2022-12-15T20:31:04.508Z,42.33
2022-12-15T20:36:10.219Z,45.67
2022-12-15T20:41:17.797Z,48.00
2022-12-15T20:46:21.738Z,45.67
2022-12-15T20:51:25.779Z,47.00
2022-12-15T20:56:30.248Z,48.33
2022-12-15T21:01:35.618Z,44.00
2022-12-15T21:06:38.718Z,42.33
2022-12-15T21:11:43.066Z,42.00
2022-12-15T21:16:46.003Z,46.33
2022-12-15T21:21:52.001Z,40.75
2022-12-15T21:26:56.421Z,44.75
2022-12-15T21:31:59.528Z,39.50
2022-12-15T21:37:03.504Z,43.75
2022-12-15T21:42:11.255Z,40.75
2022-12-15T21:47:25.721Z,44.33
2022-12-15T21:52:28.664Z,42.25
2022-12-15T21:57:32.827Z,38.25
2022-12-15T22:02:35.708Z,41.25
2022-12-15T22:07:38.518Z,41.50
2022-12-15T22:12:43.975Z,40.25
2022-12-15T22:17:46.819Z,39.50
2022-12-15T22:22:49.724Z,35.50
2022-12-15T22:27:54.754Z,37.75
2022-12-15T22:32:57.968Z,38.25
2022-12-15T22:38:00.852Z,38.75
2022-12-15T22:43:05.087Z,37.75
2022-12-15T22:48:07.906Z,37.25
2022-12-15T22:53:13.954Z,40.25
2022-12-15T22:58:23.669Z,34.50
2022-12-15T23:03:27.896Z,35.75
2022-12-15T23:08:31.035Z,35.75
2022-12-15T23:13:35.438Z,33.50
2022-12-15T23:18:38.367Z,35.75
2022-12-15T23:23:41.475Z,32.00
2022-12-15T23:28:45.747Z,33.75
2022-12-15T23:33:48.521Z,34.25
2022-12-15T23:38:55.141Z,32.25
2022-12-15T23:43:59.277Z,35.75
2022-12-15T23:49:02.141Z,37.50
2022-12-15T23:54:05.142Z,30.75
2022-12-15T23:59:09.246Z,31.25
